Conti Benguela — A8PL7 — position and weather

sailwx.info

Track history (hours):
 
Tides and Currents Weather Stations Pressure Air Temp Water Temp Dewpoint Dewpoint Depression Visibility Wind Speed Wind Dir Waves Ship Positions

Conti Benguela

Last reported at 2018-Feb-01 12:49 UTC. Time now 2018-Feb-18 07:20 UTC.
Position N 27°56' W 094°25'.
Warning: this ship's position is 16 days out of date.

Length 185 m; draft 7.8 m.

Type: Tanker. MMSI: 636091569.

Date/timePositionNaut miles runAvg speedWind from/ knotsBaromVisibWave heightAir tempDewpointWater temp
2018-Feb-01 12:49N 27°56' W 094°25'612.2
2018-Feb-01 12:21N 28°02' W 094°25'612.4
2018-Feb-01 11:53N 28°07' W 094°25'1112.3
2018-Feb-01 10:59N 28°19' W 094°25'1812.2
2018-Feb-01 09:30N 28°37' W 094°26'912.0
2018-Feb-01 08:46N 28°45' W 094°25'2611.5
2018-Feb-01 06:30N 29°11' W 094°30'911.9
2018-Feb-01 05:43N 29°18' W 094°37'210.0
2018-Feb-01 05:30N 29°19' W 094°39'1510.3
2018-Feb-01 04:06N 29°29' W 094°52'111.0
2018-Feb-01 04:00N 29°30' W 094°52'1110.8
2018-Feb-01 03:00N 29°39' W 094°58'5 9.0
2018-Feb-01 02:30N 29°43' W 095°01'3 6.7
2018-Feb-01 02:00N 29°45' W 095°04'2 3.8
2018-Feb-01 01:30N 29°45' W 095°06'0 0.0
2018-Jan-30 20:00N 29°45' W 095°06'0 0.0
2018-Jan-30 19:30N 29°45' W 095°06'0 0.0
2018-Jan-30 18:59N 29°45' W 095°06'2 4.0
2018-Jan-30 18:30N 29°45' W 095°04'4 8.3
2018-Jan-30 18:00N 29°42' W 095°01'5 9.8
2018-Jan-30 17:30N 29°38' W 094°58'510.9
2018-Jan-30 17:00N 29°34' W 094°55'510.6
2018-Jan-30 16:31N 29°29' W 094°52'6 9.9
2018-Jan-30 15:56N 29°24' W 094°49'12 9.1
2018-Jan-30 14:37N 29°18' W 094°37'110.2
2018-Jan-30 14:29N 29°18' W 094°36'5 0.2
2018-Jan-29 16:20N 29°18' W 094°30'0 0.0
2018-Jan-29 15:59N 29°18' W 094°30'0 0.0
2018-Jan-29 15:08N 29°18' W 094°30'0 0.1
2018-Jan-29 14:56N 29°18' W 094°30'0 0.0
2018-Jan-29 14:29N 29°18' W 094°30'0 0.0
2018-Jan-29 13:59N 29°18' W 094°30'0 0.0
2018-Jan-29 13:26N 29°18' W 094°30'0 0.0
2018-Jan-29 12:53N 29°18' W 094°30'0 0.0
2018-Jan-29 12:23N 29°18' W 094°30'0 0.0
2018-Jan-29 11:53N 29°18' W 094°30'0 0.0
2018-Jan-29 11:26N 29°18' W 094°30'  
2018-Jan-24 02:54N 25°37' W 079°34'511.0
2018-Jan-24 02:27N 25°42' W 079°34'1311.0
2018-Jan-24 01:17N 25°54' W 079°31'910.9
2018-Jan-24 00:25N 26°04' W 079°28'510.7
2018-Jan-24 00:00N 26°08' W 079°27'  
Track history (hours):
 
Tides and Currents Weather Stations Pressure Air Temp Water Temp Dewpoint Dewpoint Depression Visibility Wind Speed Wind Dir Waves Ship Positions

Conti Benguela

Last reported at 2018-Feb-01 12:49 UTC. Time now 2018-Feb-18 07:20 UTC.
Position N 27°56' W 094°25'.
Warning: this ship's position is 16 days out of date.

Length 185 m; draft 7.8 m.

Type: Tanker. MMSI: 636091569.

Date/timePositionNaut miles runAvg speedWind from/ knotsBaromVisibWave heightAir tempDewpointWater temp
2018-Feb-01 12:49N 27°56' W 094°25'612.2
2018-Feb-01 12:21N 28°02' W 094°25'612.4
2018-Feb-01 11:53N 28°07' W 094°25'1112.3
2018-Feb-01 10:59N 28°19' W 094°25'1812.2
2018-Feb-01 09:30N 28°37' W 094°26'912.0
2018-Feb-01 08:46N 28°45' W 094°25'2611.5
2018-Feb-01 06:30N 29°11' W 094°30'911.9
2018-Feb-01 05:43N 29°18' W 094°37'210.0
2018-Feb-01 05:30N 29°19' W 094°39'1510.3
2018-Feb-01 04:06N 29°29' W 094°52'111.0
2018-Feb-01 04:00N 29°30' W 094°52'1110.8
2018-Feb-01 03:00N 29°39' W 094°58'5 9.0
2018-Feb-01 02:30N 29°43' W 095°01'3 6.7
2018-Feb-01 02:00N 29°45' W 095°04'2 3.8
2018-Feb-01 01:30N 29°45' W 095°06'0 0.0
2018-Jan-30 20:00N 29°45' W 095°06'0 0.0
2018-Jan-30 19:30N 29°45' W 095°06'0 0.0
2018-Jan-30 18:59N 29°45' W 095°06'2 4.0
2018-Jan-30 18:30N 29°45' W 095°04'4 8.3
2018-Jan-30 18:00N 29°42' W 095°01'5 9.8
2018-Jan-30 17:30N 29°38' W 094°58'510.9
2018-Jan-30 17:00N 29°34' W 094°55'510.6
2018-Jan-30 16:31N 29°29' W 094°52'6 9.9
2018-Jan-30 15:56N 29°24' W 094°49'12 9.1
2018-Jan-30 14:37N 29°18' W 094°37'110.2
2018-Jan-30 14:29N 29°18' W 094°36'5 0.2
2018-Jan-29 16:20N 29°18' W 094°30'0 0.0
2018-Jan-29 15:59N 29°18' W 094°30'0 0.0
2018-Jan-29 15:08N 29°18' W 094°30'0 0.1
2018-Jan-29 14:56N 29°18' W 094°30'0 0.0
2018-Jan-29 14:29N 29°18' W 094°30'0 0.0
2018-Jan-29 13:59N 29°18' W 094°30'0 0.0
2018-Jan-29 13:26N 29°18' W 094°30'0 0.0
2018-Jan-29 12:53N 29°18' W 094°30'0 0.0
2018-Jan-29 12:23N 29°18' W 094°30'0 0.0
2018-Jan-29 11:53N 29°18' W 094°30'0 0.0
2018-Jan-29 11:26N 29°18' W 094°30'  
2018-Jan-24 02:54N 25°37' W 079°34'511.0
2018-Jan-24 02:27N 25°42' W 079°34'1311.0
2018-Jan-24 01:17N 25°54' W 079°31'910.9
2018-Jan-24 00:25N 26°04' W 079°28'510.7
2018-Jan-24 00:00N 26°08' W 079°27'  

Dump ship's entire track history